sensor_id;sensor_type;location;lat;lon;timestamp;P1;durP1;ratioP1;P2;durP2;ratioP2
12814;SDS011;6472;52.328;13.070;2023-08-24T00:00:58;4.83;;;4.43;;
12814;SDS011;6472;52.328;13.070;2023-08-24T00:03:26;4.30;;;3.90;;
12814;SDS011;6472;52.328;13.070;2023-08-24T00:05:54;4.80;;;4.30;;
12814;SDS011;6472;52.328;13.070;2023-08-24T00:08:22;7.07;;;4.70;;
12814;SDS011;6472;52.328;13.070;2023-08-24T00:10:50;4.57;;;4.17;;
12814;SDS011;6472;52.328;13.070;2023-08-24T00:13:18;5.10;;;3.60;;
12814;SDS011;6472;52.328;13.070;2023-08-24T00:15:46;6.47;;;3.77;;
12814;SDS011;6472;52.328;13.070;2023-08-24T00:18:16;3.93;;;3.63;;
12814;SDS011;6472;52.328;13.070;2023-08-24T00:20:45;5.20;;;4.20;;
12814;SDS011;6472;52.328;13.070;2023-08-24T00:23:14;3.77;;;3.47;;
12814;SDS011;6472;52.328;13.070;2023-08-24T00:25:41;5.23;;;4.20;;
12814;SDS011;6472;52.328;13.070;2023-08-24T00:28:10;6.00;;;4.33;;
12814;SDS011;6472;52.328;13.070;2023-08-24T00:30:37;4.13;;;3.73;;
12814;SDS011;6472;52.328;13.070;2023-08-24T00:33:05;5.33;;;4.40;;
12814;SDS011;6472;52.328;13.070;2023-08-24T00:35:35;5.53;;;4.07;;
12814;SDS011;6472;52.328;13.070;2023-08-24T00:38:03;4.93;;;4.43;;
12814;SDS011;6472;52.328;13.070;2023-08-24T00:40:31;4.90;;;4.50;;
12814;SDS011;6472;52.328;13.070;2023-08-24T00:43:00;5.23;;;4.00;;
12814;SDS011;6472;52.328;13.070;2023-08-24T00:45:28;5.70;;;4.53;;
12814;SDS011;6472;52.328;13.070;2023-08-24T00:47:59;6.17;;;4.50;;
12814;SDS011;6472;52.328;13.070;2023-08-24T00:50:29;5.27;;;4.23;;
12814;SDS011;6472;52.328;13.070;2023-08-24T00:52:58;7.23;;;4.33;;
12814;SDS011;6472;52.328;13.070;2023-08-24T00:55:26;4.73;;;4.20;;
12814;SDS011;6472;52.328;13.070;2023-08-24T00:57:54;4.77;;;4.33;;
12814;SDS011;6472;52.328;13.070;2023-08-24T01:00:23;4.93;;;4.43;;
12814;SDS011;6472;52.328;13.070;2023-08-24T01:02:52;4.57;;;3.90;;
12814;SDS011;6472;52.328;13.070;2023-08-24T01:05:20;4.63;;;4.23;;
12814;SDS011;6472;52.328;13.070;2023-08-24T01:07:48;4.03;;;3.50;;
12814;SDS011;6472;52.328;13.070;2023-08-24T01:10:19;5.30;;;4.50;;
12814;SDS011;6472;52.328;13.070;2023-08-24T01:12:59;4.50;;;3.93;;
12814;SDS011;6472;52.328;13.070;2023-08-24T01:15:36;7.37;;;3.93;;
12814;SDS011;6472;52.328;13.070;2023-08-24T01:18:06;4.77;;;4.37;;
12814;SDS011;6472;52.328;13.070;2023-08-24T01:20:40;4.80;;;4.33;;
12814;SDS011;6472;52.328;13.070;2023-08-24T01:23:14;6.07;;;4.47;;
12814;SDS011;6472;52.328;13.070;2023-08-24T01:26:01;5.40;;;4.43;;
12814;SDS011;6472;52.328;13.070;2023-08-24T01:28:37;5.10;;;4.47;;
12814;SDS011;6472;52.328;13.070;2023-08-24T01:31:07;6.50;;;4.50;;
12814;SDS011;6472;52.328;13.070;2023-08-24T01:33:35;4.40;;;4.10;;
12814;SDS011;6472;52.328;13.070;2023-08-24T01:36:04;4.47;;;4.07;;
12814;SDS011;6472;52.328;13.070;2023-08-24T01:38:32;5.23;;;4.00;;
12814;SDS011;6472;52.328;13.070;2023-08-24T01:41:04;4.43;;;4.03;;
12814;SDS011;6472;52.328;13.070;2023-08-24T01:43:37;4.47;;;4.07;;
12814;SDS011;6472;52.328;13.070;2023-08-24T01:46:10;5.30;;;4.53;;
12814;SDS011;6472;52.328;13.070;2023-08-24T01:48:42;6.47;;;3.97;;
12814;SDS011;6472;52.328;13.070;2023-08-24T01:51:10;5.33;;;4.20;;
12814;SDS011;6472;52.328;13.070;2023-08-24T01:53:39;5.07;;;4.57;;
12814;SDS011;6472;52.328;13.070;2023-08-24T01:56:10;5.77;;;4.90;;
12814;SDS011;6472;52.328;13.070;2023-08-24T01:58:39;4.50;;;4.10;;
12814;SDS011;6472;52.328;13.070;2023-08-24T02:01:07;4.63;;;4.17;;
12814;SDS011;6472;52.328;13.070;2023-08-24T02:03:36;4.63;;;4.20;;
12814;SDS011;6472;52.328;13.070;2023-08-24T02:06:06;4.60;;;4.13;;
12814;SDS011;6472;52.328;13.070;2023-08-24T02:08:34;6.07;;;4.53;;
12814;SDS011;6472;52.328;13.070;2023-08-24T02:11:03;5.27;;;4.23;;
12814;SDS011;6472;52.328;13.070;2023-08-24T02:13:32;4.97;;;4.47;;
12814;SDS011;6472;52.328;13.070;2023-08-24T02:16:01;5.03;;;4.60;;
12814;SDS011;6472;52.328;13.070;2023-08-24T02:18:30;4.87;;;4.37;;
12814;SDS011;6472;52.328;13.070;2023-08-24T02:20:58;6.63;;;5.13;;
12814;SDS011;6472;52.328;13.070;2023-08-24T02:23:26;4.47;;;3.97;;
12814;SDS011;6472;52.328;13.070;2023-08-24T02:25:56;4.37;;;4.07;;
12814;SDS011;6472;52.328;13.070;2023-08-24T02:28:24;4.33;;;3.90;;
12814;SDS011;6472;52.328;13.070;2023-08-24T02:30:53;5.20;;;4.70;;
12814;SDS011;6472;52.328;13.070;2023-08-24T02:33:21;4.43;;;4.03;;
12814;SDS011;6472;52.328;13.070;2023-08-24T02:35:49;5.13;;;4.53;;
12814;SDS011;6472;52.328;13.070;2023-08-24T02:38:17;4.40;;;4.03;;
12814;SDS011;6472;52.328;13.070;2023-08-24T02:40:45;5.80;;;4.90;;
12814;SDS011;6472;52.328;13.070;2023-08-24T02:43:13;4.93;;;3.80;;
12814;SDS011;6472;52.328;13.070;2023-08-24T02:45:41;5.07;;;4.57;;
12814;SDS011;6472;52.328;13.070;2023-08-24T02:48:10;4.80;;;4.40;;
12814;SDS011;6472;52.328;13.070;2023-08-24T02:50:38;4.50;;;3.83;;
12814;SDS011;6472;52.328;13.070;2023-08-24T02:53:06;3.83;;;3.53;;
12814;SDS011;6472;52.328;13.070;2023-08-24T02:55:34;4.90;;;4.50;;
12814;SDS011;6472;52.328;13.070;2023-08-24T02:58:02;5.17;;;4.33;;
12814;SDS011;6472;52.328;13.070;2023-08-24T03:00:30;4.23;;;3.83;;
12814;SDS011;6472;52.328;13.070;2023-08-24T03:02:59;5.73;;;4.27;;
12814;SDS011;6472;52.328;13.070;2023-08-24T03:05:28;4.60;;;4.20;;
12814;SDS011;6472;52.328;13.070;2023-08-24T03:07:56;4.73;;;4.33;;
12814;SDS011;6472;52.328;13.070;2023-08-24T03:10:24;6.20;;;4.83;;
12814;SDS011;6472;52.328;13.070;2023-08-24T03:12:52;5.13;;;4.30;;
12814;SDS011;6472;52.328;13.070;2023-08-24T03:15:20;5.33;;;4.83;;
12814;SDS011;6472;52.328;13.070;2023-08-24T03:17:48;5.73;;;4.70;;
12814;SDS011;6472;52.328;13.070;2023-08-24T03:20:16;5.03;;;4.63;;
12814;SDS011;6472;52.328;13.070;2023-08-24T03:22:46;4.95;;;4.55;;
12814;SDS011;6472;52.328;13.070;2023-08-24T03:25:14;5.33;;;4.50;;
12814;SDS011;6472;52.328;13.070;2023-08-24T03:27:42;6.00;;;4.90;;
12814;SDS011;6472;52.328;13.070;2023-08-24T03:30:10;7.07;;;5.30;;
12814;SDS011;6472;52.328;13.070;2023-08-24T03:32:39;4.63;;;4.20;;
12814;SDS011;6472;52.328;13.070;2023-08-24T03:35:07;5.47;;;4.97;;
12814;SDS011;6472;52.328;13.070;2023-08-24T03:37:35;5.07;;;4.60;;
12814;SDS011;6472;52.328;13.070;2023-08-24T03:40:07;5.67;;;5.17;;
12814;SDS011;6472;52.328;13.070;2023-08-24T03:42:35;6.27;;;5.70;;
12814;SDS011;6472;52.328;13.070;2023-08-24T03:45:03;5.47;;;4.87;;
12814;SDS011;6472;52.328;13.070;2023-08-24T03:47:32;7.10;;;5.00;;
12814;SDS011;6472;52.328;13.070;2023-08-24T03:50:00;6.93;;;5.50;;
12814;SDS011;6472;52.328;13.070;2023-08-24T03:52:28;5.20;;;4.70;;
12814;SDS011;6472;52.328;13.070;2023-08-24T03:54:57;5.70;;;5.03;;
12814;SDS011;6472;52.328;13.070;2023-08-24T03:57:28;7.77;;;5.77;;
12814;SDS011;6472;52.328;13.070;2023-08-24T03:59:59;5.43;;;4.90;;
12814;SDS011;6472;52.328;13.070;2023-08-24T04:02:30;7.23;;;5.90;;
12814;SDS011;6472;52.328;13.070;2023-08-24T04:04:58;5.80;;;5.23;;
12814;SDS011;6472;52.328;13.070;2023-08-24T04:07:26;7.57;;;4.23;;
12814;SDS011;6472;52.328;13.070;2023-08-24T04:09:54;4.83;;;4.43;;
12814;SDS011;6472;52.328;13.070;2023-08-24T04:12:22;5.93;;;5.30;;
12814;SDS011;6472;52.328;13.070;2023-08-24T04:14:51;5.70;;;5.20;;
12814;SDS011;6472;52.328;13.070;2023-08-24T04:17:19;5.70;;;5.17;;
12814;SDS011;6472;52.328;13.070;2023-08-24T04:19:47;5.73;;;5.17;;
12814;SDS011;6472;52.328;13.070;2023-08-24T04:22:15;5.95;;;5.38;;
12814;SDS011;6472;52.328;13.070;2023-08-24T04:24:43;6.15;;;5.65;;
12814;SDS011;6472;52.328;13.070;2023-08-24T04:27:15;5.83;;;5.30;;
12814;SDS011;6472;52.328;13.070;2023-08-24T04:29:43;5.17;;;4.63;;
12814;SDS011;6472;52.328;13.070;2023-08-24T04:32:12;5.50;;;5.10;;
12814;SDS011;6472;52.328;13.070;2023-08-24T04:34:40;6.30;;;5.70;;
12814;SDS011;6472;52.328;13.070;2023-08-24T04:37:08;6.27;;;5.77;;
12814;SDS011;6472;52.328;13.070;2023-08-24T04:39:36;6.30;;;5.60;;
12814;SDS011;6472;52.328;13.070;2023-08-24T04:42:04;5.93;;;5.33;;
12814;SDS011;6472;52.328;13.070;2023-08-24T04:44:33;6.57;;;5.30;;
12814;SDS011;6472;52.328;13.070;2023-08-24T04:47:01;8.65;;;5.55;;
12814;SDS011;6472;52.328;13.070;2023-08-24T04:49:30;6.53;;;5.93;;
12814;SDS011;6472;52.328;13.070;2023-08-24T04:51:58;6.00;;;5.37;;
12814;SDS011;6472;52.328;13.070;2023-08-24T04:54:26;6.73;;;5.67;;
12814;SDS011;6472;52.328;13.070;2023-08-24T04:56:55;6.80;;;5.85;;
12814;SDS011;6472;52.328;13.070;2023-08-24T04:59:23;5.97;;;5.35;;
12814;SDS011;6472;52.328;13.070;2023-08-24T05:01:51;6.65;;;6.15;;
12814;SDS011;6472;52.328;13.070;2023-08-24T05:04:19;6.47;;;5.88;;
12814;SDS011;6472;52.328;13.070;2023-08-24T05:06:48;7.65;;;6.32;;
12814;SDS011;6472;52.328;13.070;2023-08-24T05:09:16;7.68;;;6.90;;
12814;SDS011;6472;52.328;13.070;2023-08-24T05:11:44;7.00;;;6.22;;
12814;SDS011;6472;52.328;13.070;2023-08-24T05:14:12;7.30;;;6.47;;
12814;SDS011;6472;52.328;13.070;2023-08-24T05:16:40;8.27;;;5.95;;
12814;SDS011;6472;52.328;13.070;2023-08-24T05:19:08;6.43;;;5.82;;
12814;SDS011;6472;52.328;13.070;2023-08-24T05:21:36;8.57;;;7.60;;
12814;SDS011;6472;52.328;13.070;2023-08-24T05:24:06;7.07;;;6.40;;
12814;SDS011;6472;52.328;13.070;2023-08-24T05:26:34;7.03;;;6.32;;
12814;SDS011;6472;52.328;13.070;2023-08-24T05:29:02;9.15;;;6.63;;
12814;SDS011;6472;52.328;13.070;2023-08-24T05:31:30;6.03;;;5.55;;
12814;SDS011;6472;52.328;13.070;2023-08-24T05:33:58;6.93;;;6.25;;
12814;SDS011;6472;52.328;13.070;2023-08-24T05:36:26;7.90;;;6.70;;
12814;SDS011;6472;52.328;13.070;2023-08-24T05:38:54;8.43;;;6.53;;
12814;SDS011;6472;52.328;13.070;2023-08-24T05:41:32;8.05;;;6.28;;
12814;SDS011;6472;52.328;13.070;2023-08-24T05:44:02;6.00;;;5.35;;
12814;SDS011;6472;52.328;13.070;2023-08-24T05:46:30;8.93;;;5.85;;
12814;SDS011;6472;52.328;13.070;2023-08-24T05:48:59;8.95;;;6.03;;
12814;SDS011;6472;52.328;13.070;2023-08-24T05:51:27;5.82;;;5.20;;
12814;SDS011;6472;52.328;13.070;2023-08-24T05:53:55;7.75;;;5.00;;
12814;SDS011;6472;52.328;13.070;2023-08-24T05:56:24;5.90;;;5.30;;
12814;SDS011;6472;52.328;13.070;2023-08-24T05:58:55;5.43;;;4.68;;
12814;SDS011;6472;52.328;13.070;2023-08-24T06:01:24;4.47;;;4.07;;
12814;SDS011;6472;52.328;13.070;2023-08-24T06:03:53;5.00;;;4.50;;
12814;SDS011;6472;52.328;13.070;2023-08-24T06:06:21;6.85;;;5.40;;
12814;SDS011;6472;52.328;13.070;2023-08-24T06:08:49;4.50;;;4.03;;
12814;SDS011;6472;52.328;13.070;2023-08-24T06:11:17;4.32;;;3.97;;
12814;SDS011;6472;52.328;13.070;2023-08-24T06:13:45;6.00;;;4.93;;
12814;SDS011;6472;52.328;13.070;2023-08-24T06:16:14;6.60;;;5.38;;
12814;SDS011;6472;52.328;13.070;2023-08-24T06:18:42;4.25;;;3.92;;
12814;SDS011;6472;52.328;13.070;2023-08-24T06:21:11;6.53;;;4.50;;
12814;SDS011;6472;52.328;13.070;2023-08-24T06:23:39;5.03;;;4.60;;
12814;SDS011;6472;52.328;13.070;2023-08-24T06:26:07;10.88;;;4.65;;
12814;SDS011;6472;52.328;13.070;2023-08-24T06:28:35;5.25;;;4.20;;
12814;SDS011;6472;52.328;13.070;2023-08-24T06:31:03;5.57;;;4.20;;
12814;SDS011;6472;52.328;13.070;2023-08-24T06:33:34;5.95;;;3.78;;
12814;SDS011;6472;52.328;13.070;2023-08-24T06:36:03;5.15;;;4.18;;
12814;SDS011;6472;52.328;13.070;2023-08-24T06:38:32;4.88;;;3.72;;
12814;SDS011;6472;52.328;13.070;2023-08-24T06:41:00;7.38;;;3.95;;
12814;SDS011;6472;52.328;13.070;2023-08-24T06:43:28;5.32;;;3.88;;
12814;SDS011;6472;52.328;13.070;2023-08-24T06:45:56;3.90;;;3.28;;
12814;SDS011;6472;52.328;13.070;2023-08-24T06:48:24;4.38;;;3.72;;
12814;SDS011;6472;52.328;13.070;2023-08-24T06:50:53;4.93;;;3.80;;
12814;SDS011;6472;52.328;13.070;2023-08-24T06:53:21;4.05;;;3.50;;
12814;SDS011;6472;52.328;13.070;2023-08-24T06:55:55;4.20;;;3.67;;
12814;SDS011;6472;52.328;13.070;2023-08-24T06:58:41;4.60;;;3.38;;
12814;SDS011;6472;52.328;13.070;2023-08-24T07:01:10;3.20;;;2.72;;
12814;SDS011;6472;52.328;13.070;2023-08-24T07:03:37;3.70;;;3.10;;
12814;SDS011;6472;52.328;13.070;2023-08-24T07:06:07;4.18;;;2.80;;
12814;SDS011;6472;52.328;13.070;2023-08-24T07:08:35;3.80;;;2.72;;
12814;SDS011;6472;52.328;13.070;2023-08-24T07:11:03;4.22;;;2.70;;
12814;SDS011;6472;52.328;13.070;2023-08-24T07:13:31;4.90;;;2.60;;
12814;SDS011;6472;52.328;13.070;2023-08-24T07:16:01;3.78;;;3.45;;
12814;SDS011;6472;52.328;13.070;2023-08-24T07:18:30;3.63;;;3.33;;
12814;SDS011;6472;52.328;13.070;2023-08-24T07:20:58;2.60;;;2.35;;
12814;SDS011;6472;52.328;13.070;2023-08-24T07:23:28;2.83;;;2.58;;
12814;SDS011;6472;52.328;13.070;2023-08-24T07:25:56;3.75;;;2.72;;
12814;SDS011;6472;52.328;13.070;2023-08-24T07:28:24;2.50;;;2.30;;
12814;SDS011;6472;52.328;13.070;2023-08-24T07:30:52;3.90;;;3.00;;
12814;SDS011;6472;52.328;13.070;2023-08-24T07:33:22;2.75;;;2.55;;
12814;SDS011;6472;52.328;13.070;2023-08-24T07:35:51;2.92;;;2.70;;
12814;SDS011;6472;52.328;13.070;2023-08-24T07:38:19;4.10;;;2.60;;
12814;SDS011;6472;52.328;13.070;2023-08-24T07:40:48;4.88;;;3.17;;
12814;SDS011;6472;52.328;13.070;2023-08-24T07:43:16;3.45;;;2.10;;
12814;SDS011;6472;52.328;13.070;2023-08-24T07:45:44;3.63;;;2.45;;
12814;SDS011;6472;52.328;13.070;2023-08-24T07:48:15;3.05;;;2.83;;
12814;SDS011;6472;52.328;13.070;2023-08-24T07:50:43;2.70;;;2.15;;
12814;SDS011;6472;52.328;13.070;2023-08-24T07:53:11;4.15;;;3.00;;
12814;SDS011;6472;52.328;13.070;2023-08-24T07:55:40;5.03;;;2.75;;
12814;SDS011;6472;52.328;13.070;2023-08-24T07:58:11;4.88;;;2.47;;
12814;SDS011;6472;52.328;13.070;2023-08-24T08:00:39;4.80;;;2.40;;
12814;SDS011;6472;52.328;13.070;2023-08-24T08:03:07;4.25;;;2.60;;
12814;SDS011;6472;52.328;13.070;2023-08-24T08:05:35;1.92;;;1.83;;
12814;SDS011;6472;52.328;13.070;2023-08-24T08:08:04;3.10;;;2.45;;
12814;SDS011;6472;52.328;13.070;2023-08-24T08:10:32;5.38;;;2.70;;
12814;SDS011;6472;52.328;13.070;2023-08-24T08:13:00;2.85;;;2.65;;
12814;SDS011;6472;52.328;13.070;2023-08-24T08:15:29;3.90;;;2.88;;
12814;SDS011;6472;52.328;13.070;2023-08-24T08:17:57;4.13;;;2.65;;
12814;SDS011;6472;52.328;13.070;2023-08-24T08:20:26;3.10;;;2.20;;
12814;SDS011;6472;52.328;13.070;2023-08-24T08:22:54;2.42;;;2.22;;
12814;SDS011;6472;52.328;13.070;2023-08-24T08:25:22;6.03;;;2.38;;
12814;SDS011;6472;52.328;13.070;2023-08-24T08:27:50;3.00;;;2.53;;
12814;SDS011;6472;52.328;13.070;2023-08-24T08:30:18;2.35;;;2.15;;
12814;SDS011;6472;52.328;13.070;2023-08-24T08:32:48;2.40;;;2.20;;
12814;SDS011;6472;52.328;13.070;2023-08-24T08:35:17;4.43;;;2.50;;
12814;SDS011;6472;52.328;13.070;2023-08-24T08:37:45;2.78;;;2.58;;
12814;SDS011;6472;52.328;13.070;2023-08-24T08:40:16;3.78;;;2.85;;
12814;SDS011;6472;52.328;13.070;2023-08-24T08:42:45;4.85;;;2.47;;
12814;SDS011;6472;52.328;13.070;2023-08-24T08:45:13;2.58;;;2.38;;
12814;SDS011;6472;52.328;13.070;2023-08-24T08:47:41;3.65;;;2.30;;
12814;SDS011;6472;52.328;13.070;2023-08-24T08:50:11;2.83;;;2.63;;
12814;SDS011;6472;52.328;13.070;2023-08-24T08:52:39;2.75;;;2.55;;
12814;SDS011;6472;52.328;13.070;2023-08-24T08:55:07;2.60;;;2.40;;
12814;SDS011;6472;52.328;13.070;2023-08-24T08:57:37;4.28;;;2.70;;
12814;SDS011;6472;52.328;13.070;2023-08-24T09:00:09;2.60;;;2.40;;
12814;SDS011;6472;52.328;13.070;2023-08-24T09:02:40;3.83;;;2.58;;
12814;SDS011;6472;52.328;13.070;2023-08-24T09:05:12;5.38;;;2.30;;
12814;SDS011;6472;52.328;13.070;2023-08-24T09:07:41;2.97;;;2.13;;
12814;SDS011;6472;52.328;13.070;2023-08-24T09:10:09;3.17;;;2.55;;
12814;SDS011;6472;52.328;13.070;2023-08-24T09:12:37;2.78;;;2.13;;
12814;SDS011;6472;52.328;13.070;2023-08-24T09:15:05;3.63;;;2.45;;
12814;SDS011;6472;52.328;13.070;2023-08-24T09:17:34;2.53;;;2.08;;
12814;SDS011;6472;52.328;13.070;2023-08-24T09:20:05;4.07;;;2.45;;
12814;SDS011;6472;52.328;13.070;2023-08-24T09:25:03;3.08;;;2.78;;
12814;SDS011;6472;52.328;13.070;2023-08-24T09:27:32;2.60;;;2.40;;
12814;SDS011;6472;52.328;13.070;2023-08-24T09:30:02;4.25;;;2.13;;
12814;SDS011;6472;52.328;13.070;2023-08-24T09:32:32;2.15;;;1.85;;
12814;SDS011;6472;52.328;13.070;2023-08-24T09:35:02;4.68;;;2.13;;
12814;SDS011;6472;52.328;13.070;2023-08-24T09:37:31;3.55;;;2.13;;
12814;SDS011;6472;52.328;13.070;2023-08-24T09:40:00;2.03;;;1.92;;
12814;SDS011;6472;52.328;13.070;2023-08-24T09:42:37;2.60;;;2.00;;
12814;SDS011;6472;52.328;13.070;2023-08-24T09:45:07;2.45;;;2.20;;
12814;SDS011;6472;52.328;13.070;2023-08-24T09:47:37;3.17;;;1.95;;
12814;SDS011;6472;52.328;13.070;2023-08-24T09:50:05;3.85;;;2.00;;
12814;SDS011;6472;52.328;13.070;2023-08-24T09:52:34;2.40;;;1.83;;
12814;SDS011;6472;52.328;13.070;2023-08-24T09:55:05;2.20;;;1.98;;
12814;SDS011;6472;52.328;13.070;2023-08-24T09:57:37;3.13;;;1.85;;
12814;SDS011;6472;52.328;13.070;2023-08-24T10:00:06;2.22;;;2.00;;
12814;SDS011;6472;52.328;13.070;2023-08-24T10:02:39;2.58;;;1.80;;
12814;SDS011;6472;52.328;13.070;2023-08-24T10:05:17;3.55;;;2.40;;
12814;SDS011;6472;52.328;13.070;2023-08-24T10:08:04;2.28;;;1.90;;
12814;SDS011;6472;52.328;13.070;2023-08-24T10:10:35;2.45;;;2.25;;
12814;SDS011;6472;52.328;13.070;2023-08-24T10:13:06;2.47;;;2.15;;
12814;SDS011;6472;52.328;13.070;2023-08-24T10:15:41;2.17;;;2.08;;
12814;SDS011;6472;52.328;13.070;2023-08-24T10:18:13;2.88;;;2.15;;
12814;SDS011;6472;52.328;13.070;2023-08-24T10:20:42;3.97;;;2.60;;
12814;SDS011;6472;52.328;13.070;2023-08-24T10:23:11;5.00;;;2.45;;
12814;SDS011;6472;52.328;13.070;2023-08-24T10:25:43;3.95;;;2.15;;
12814;SDS011;6472;52.328;13.070;2023-08-24T10:28:13;2.35;;;2.05;;
12814;SDS011;6472;52.328;13.070;2023-08-24T10:30:42;2.15;;;1.67;;
12814;SDS011;6472;52.328;13.070;2023-08-24T10:33:12;3.10;;;2.15;;
12814;SDS011;6472;52.328;13.070;2023-08-24T10:35:42;2.22;;;2.05;;
12814;SDS011;6472;52.328;13.070;2023-08-24T10:38:22;3.63;;;2.55;;
12814;SDS011;6472;52.328;13.070;2023-08-24T10:40:53;2.13;;;2.03;;
12814;SDS011;6472;52.328;13.070;2023-08-24T10:43:33;2.38;;;2.08;;
12814;SDS011;6472;52.328;13.070;2023-08-24T10:46:02;2.95;;;2.00;;
12814;SDS011;6472;52.328;13.070;2023-08-24T10:48:31;6.32;;;2.72;;
12814;SDS011;6472;52.328;13.070;2023-08-24T10:51:26;2.70;;;2.50;;
12814;SDS011;6472;52.328;13.070;2023-08-24T10:53:57;4.47;;;2.50;;
12814;SDS011;6472;52.328;13.070;2023-08-24T10:56:35;4.97;;;2.20;;
12814;SDS011;6472;52.328;13.070;2023-08-24T10:59:12;26.95;;;8.88;;
12814;SDS011;6472;52.328;13.070;2023-08-24T11:01:41;2.40;;;2.20;;
12814;SDS011;6472;52.328;13.070;2023-08-24T11:04:10;18.60;;;6.38;;
12814;SDS011;6472;52.328;13.070;2023-08-24T11:06:52;3.70;;;2.25;;
12814;SDS011;6472;52.328;13.070;2023-08-24T11:09:22;3.13;;;2.38;;
12814;SDS011;6472;52.328;13.070;2023-08-24T11:11:59;14.38;;;5.15;;
12814;SDS011;6472;52.328;13.070;2023-08-24T11:14:28;5.00;;;3.60;;
12814;SDS011;6472;52.328;13.070;2023-08-24T11:16:58;3.15;;;2.58;;
12814;SDS011;6472;52.328;13.070;2023-08-24T11:19:27;4.28;;;2.40;;
12814;SDS011;6472;52.328;13.070;2023-08-24T11:21:57;3.28;;;2.20;;
12814;SDS011;6472;52.328;13.070;2023-08-24T11:24:25;6.55;;;3.60;;
12814;SDS011;6472;52.328;13.070;2023-08-24T11:26:54;2.80;;;2.10;;
12814;SDS011;6472;52.328;13.070;2023-08-24T11:29:24;4.63;;;2.30;;
12814;SDS011;6472;52.328;13.070;2023-08-24T11:31:54;2.10;;;1.90;;
12814;SDS011;6472;52.328;13.070;2023-08-24T11:34:24;2.22;;;2.13;;
12814;SDS011;6472;52.328;13.070;2023-08-24T11:36:52;3.38;;;2.50;;
12814;SDS011;6472;52.328;13.070;2023-08-24T11:39:22;2.78;;;2.50;;
12814;SDS011;6472;52.328;13.070;2023-08-24T11:41:59;2.90;;;2.47;;
12814;SDS011;6472;52.328;13.070;2023-08-24T11:44:29;2.63;;;2.20;;
12814;SDS011;6472;52.328;13.070;2023-08-24T11:47:13;3.03;;;2.13;;
12814;SDS011;6472;52.328;13.070;2023-08-24T11:49:41;7.55;;;2.83;;
12814;SDS011;6472;52.328;13.070;2023-08-24T11:52:11;2.50;;;2.30;;
12814;SDS011;6472;52.328;13.070;2023-08-24T11:54:42;2.95;;;2.65;;
12814;SDS011;6472;52.328;13.070;2023-08-24T11:57:12;2.92;;;2.40;;
12814;SDS011;6472;52.328;13.070;2023-08-24T11:59:41;3.08;;;2.88;;
12814;SDS011;6472;52.328;13.070;2023-08-24T12:02:11;3.95;;;2.35;;
12814;SDS011;6472;52.328;13.070;2023-08-24T12:04:40;2.13;;;1.92;;
12814;SDS011;6472;52.328;13.070;2023-08-24T12:07:10;4.60;;;2.42;;
12814;SDS011;6472;52.328;13.070;2023-08-24T12:09:39;5.32;;;2.50;;
12814;SDS011;6472;52.328;13.070;2023-08-24T12:12:11;3.95;;;2.45;;
12814;SDS011;6472;52.328;13.070;2023-08-24T12:14:42;2.67;;;2.10;;
12814;SDS011;6472;52.328;13.070;2023-08-24T12:17:13;2.63;;;2.38;;
12814;SDS011;6472;52.328;13.070;2023-08-24T12:19:41;2.60;;;2.25;;
12814;SDS011;6472;52.328;13.070;2023-08-24T12:22:13;2.83;;;2.60;;
12814;SDS011;6472;52.328;13.070;2023-08-24T12:24:44;2.97;;;2.67;;
12814;SDS011;6472;52.328;13.070;2023-08-24T12:27:19;2.90;;;2.28;;
12814;SDS011;6472;52.328;13.070;2023-08-24T12:29:49;7.38;;;3.20;;
12814;SDS011;6472;52.328;13.070;2023-08-24T12:32:18;2.78;;;2.58;;
12814;SDS011;6472;52.328;13.070;2023-08-24T12:34:49;3.90;;;2.22;;
12814;SDS011;6472;52.328;13.070;2023-08-24T12:37:19;3.65;;;2.63;;
12814;SDS011;6472;52.328;13.070;2023-08-24T12:39:47;3.20;;;2.20;;
12814;SDS011;6472;52.328;13.070;2023-08-24T12:42:18;2.75;;;2.30;;
12814;SDS011;6472;52.328;13.070;2023-08-24T12:44:47;3.58;;;2.13;;
12814;SDS011;6472;52.328;13.070;2023-08-24T12:47:16;2.80;;;2.45;;
12814;SDS011;6472;52.328;13.070;2023-08-24T12:49:47;2.50;;;2.30;;
12814;SDS011;6472;52.328;13.070;2023-08-24T12:52:17;2.38;;;2.25;;
12814;SDS011;6472;52.328;13.070;2023-08-24T12:54:45;2.40;;;1.90;;
12814;SDS011;6472;52.328;13.070;2023-08-24T12:57:13;2.45;;;2.30;;
12814;SDS011;6472;52.328;13.070;2023-08-24T12:59:41;3.03;;;2.70;;
12814;SDS011;6472;52.328;13.070;2023-08-24T13:02:09;4.35;;;2.83;;
12814;SDS011;6472;52.328;13.070;2023-08-24T13:04:51;2.40;;;2.30;;
12814;SDS011;6472;52.328;13.070;2023-08-24T13:07:20;2.83;;;2.35;;
12814;SDS011;6472;52.328;13.070;2023-08-24T13:09:48;2.88;;;2.40;;
12814;SDS011;6472;52.328;13.070;2023-08-24T13:12:20;2.63;;;2.22;;
12814;SDS011;6472;52.328;13.070;2023-08-24T13:14:48;2.78;;;2.20;;
12814;SDS011;6472;52.328;13.070;2023-08-24T13:17:16;2.60;;;2.42;;
12814;SDS011;6472;52.328;13.070;2023-08-24T13:19:44;5.38;;;2.47;;
12814;SDS011;6472;52.328;13.070;2023-08-24T13:22:13;2.47;;;2.30;;
12814;SDS011;6472;52.328;13.070;2023-08-24T13:24:41;2.97;;;2.78;;
12814;SDS011;6472;52.328;13.070;2023-08-24T13:27:10;2.65;;;2.47;;
12814;SDS011;6472;52.328;13.070;2023-08-24T13:29:38;2.85;;;2.28;;
12814;SDS011;6472;52.328;13.070;2023-08-24T13:32:07;2.33;;;2.17;;
12814;SDS011;6472;52.328;13.070;2023-08-24T13:34:35;3.42;;;2.08;;
12814;SDS011;6472;52.328;13.070;2023-08-24T13:37:03;2.55;;;2.35;;
12814;SDS011;6472;52.328;13.070;2023-08-24T13:39:33;6.40;;;2.80;;
12814;SDS011;6472;52.328;13.070;2023-08-24T13:42:01;2.55;;;2.35;;
12814;SDS011;6472;52.328;13.070;2023-08-24T13:44:29;4.25;;;2.28;;
12814;SDS011;6472;52.328;13.070;2023-08-24T13:46:57;3.60;;;2.50;;
12814;SDS011;6472;52.328;13.070;2023-08-24T13:49:25;4.45;;;3.25;;
12814;SDS011;6472;52.328;13.070;2023-08-24T13:52:06;3.75;;;2.38;;
12814;SDS011;6472;52.328;13.070;2023-08-24T13:54:36;3.03;;;2.38;;
12814;SDS011;6472;52.328;13.070;2023-08-24T13:57:04;5.95;;;2.45;;
12814;SDS011;6472;52.328;13.070;2023-08-24T13:59:32;3.10;;;2.53;;
12814;SDS011;6472;52.328;13.070;2023-08-24T14:02:00;3.72;;;2.65;;
12814;SDS011;6472;52.328;13.070;2023-08-24T14:04:28;3.75;;;2.42;;
12814;SDS011;6472;52.328;13.070;2023-08-24T14:06:56;3.00;;;2.70;;
12814;SDS011;6472;52.328;13.070;2023-08-24T14:09:24;2.53;;;2.30;;
12814;SDS011;6472;52.328;13.070;2023-08-24T14:11:53;2.90;;;2.40;;
12814;SDS011;6472;52.328;13.070;2023-08-24T14:14:21;2.70;;;2.50;;
12814;SDS011;6472;52.328;13.070;2023-08-24T14:16:53;3.50;;;2.80;;
12814;SDS011;6472;52.328;13.070;2023-08-24T14:19:22;3.00;;;2.38;;
12814;SDS011;6472;52.328;13.070;2023-08-24T14:21:51;3.88;;;2.50;;
12814;SDS011;6472;52.328;13.070;2023-08-24T14:24:19;3.22;;;2.50;;
12814;SDS011;6472;52.328;13.070;2023-08-24T14:26:49;2.70;;;2.50;;
12814;SDS011;6472;52.328;13.070;2023-08-24T14:29:18;2.97;;;2.78;;
12814;SDS011;6472;52.328;13.070;2023-08-24T14:31:46;5.43;;;2.55;;
12814;SDS011;6472;52.328;13.070;2023-08-24T14:34:14;3.42;;;2.53;;
12814;SDS011;6472;52.328;13.070;2023-08-24T14:36:42;3.67;;;2.40;;
12814;SDS011;6472;52.328;13.070;2023-08-24T14:39:10;2.47;;;2.22;;
12814;SDS011;6472;52.328;13.070;2023-08-24T14:41:38;5.57;;;2.55;;
12814;SDS011;6472;52.328;13.070;2023-08-24T14:44:06;2.63;;;2.42;;
12814;SDS011;6472;52.328;13.070;2023-08-24T14:46:36;2.00;;;1.90;;
12814;SDS011;6472;52.328;13.070;2023-08-24T14:49:05;2.70;;;2.50;;
12814;SDS011;6472;52.328;13.070;2023-08-24T14:51:34;2.63;;;2.42;;
12814;SDS011;6472;52.328;13.070;2023-08-24T14:54:03;2.60;;;2.40;;
12814;SDS011;6472;52.328;13.070;2023-08-24T14:56:33;3.47;;;2.40;;
12814;SDS011;6472;52.328;13.070;2023-08-24T14:59:01;3.90;;;2.58;;
12814;SDS011;6472;52.328;13.070;2023-08-24T15:01:30;3.15;;;2.55;;
12814;SDS011;6472;52.328;13.070;2023-08-24T15:03:59;2.90;;;2.30;;